createdAt,value
2023-10-23T00:02:37.214Z,23.73
2023-10-23T00:07:24.326Z,21.08
2023-10-23T00:12:16.828Z,18.08
2023-10-23T00:17:04.511Z,19.80
2023-10-23T00:21:51.726Z,21.52
2023-10-23T00:26:38.916Z,24.90
2023-10-23T00:31:28.855Z,20.98
2023-10-23T00:36:16.560Z,22.40
2023-10-23T00:41:04.891Z,19.25
2023-10-23T00:45:55.868Z,24.45
2023-10-23T00:50:45.862Z,26.67
2023-10-23T00:55:33.033Z,29.42
2023-10-23T01:00:20.540Z,28.75
2023-10-23T01:05:08.247Z,28.10
2023-10-23T01:09:57.995Z,27.30
2023-10-23T01:14:45.177Z,27.35
2023-10-23T01:19:33.339Z,30.48
2023-10-23T01:24:23.213Z,25.30
2023-10-23T01:29:13.068Z,29.83
2023-10-23T01:34:00.298Z,31.20
2023-10-23T01:38:47.384Z,28.35
2023-10-23T01:43:34.434Z,28.58
2023-10-23T01:48:24.279Z,24.77
2023-10-23T01:53:11.432Z,30.13
2023-10-23T01:57:58.800Z,26.90
2023-10-23T02:02:46.071Z,24.27
2023-10-23T02:07:35.858Z,23.98
2023-10-23T02:12:23.158Z,26.05
2023-10-23T02:17:10.305Z,24.20
2023-10-23T02:21:57.833Z,20.30
2023-10-23T02:26:47.695Z,21.33
2023-10-23T02:31:35.266Z,26.08
2023-10-23T02:36:22.408Z,23.02
2023-10-23T02:41:11.213Z,26.20
2023-10-23T02:46:04.621Z,21.48
2023-10-23T02:50:54.840Z,23.85
2023-10-23T02:55:42.036Z,29.02
2023-10-23T03:00:29.636Z,32.50
2023-10-23T03:05:19.509Z,27.90
2023-10-23T03:10:07.830Z,30.83
2023-10-23T03:14:55.087Z,29.95
2023-10-23T03:19:42.253Z,29.42
2023-10-23T03:24:32.966Z,28.52
2023-10-23T03:29:20.227Z,25.70
2023-10-23T03:34:07.328Z,31.60
2023-10-23T03:38:55.282Z,33.50
2023-10-23T03:43:44.946Z,28.38
2023-10-23T03:48:35.088Z,32.85
2023-10-23T03:53:22.203Z,25.92
2023-10-23T03:58:09.269Z,39.70
2023-10-23T04:02:59.036Z,31.83
2023-10-23T04:07:46.425Z,34.13
2023-10-23T04:12:33.786Z,34.53
2023-10-23T04:17:20.902Z,29.95
2023-10-23T04:22:10.707Z,29.15
2023-10-23T04:26:57.739Z,30.75
2023-10-23T04:31:45.040Z,35.42
2023-10-23T04:36:32.276Z,38.53
2023-10-23T04:41:23.022Z,34.65
2023-10-23T04:46:10.266Z,30.77
2023-10-23T04:51:01.149Z,34.95
2023-10-23T04:55:48.208Z,43.78
2023-10-23T05:00:39.499Z,35.78
2023-10-23T05:05:26.700Z,41.10
2023-10-23T05:10:13.973Z,46.35
2023-10-23T05:15:01.930Z,43.60
2023-10-23T05:19:51.708Z,42.97
2023-10-23T05:24:39.020Z,49.92
2023-10-23T05:29:26.173Z,61.05
2023-10-23T05:34:13.353Z,66.32
2023-10-23T05:39:03.085Z,76.45
2023-10-23T05:43:50.256Z,75.15
2023-10-23T05:48:37.429Z,76.78
2023-10-23T05:53:24.691Z,79.18
2023-10-23T05:58:14.373Z,73.53
2023-10-23T06:03:01.611Z,94.35
2023-10-23T06:07:49.017Z,84.60
2023-10-23T06:12:37.616Z,99.03
2023-10-23T06:17:27.572Z,116.47
2023-10-23T06:22:14.696Z,124.10
2023-10-23T06:27:01.775Z,114.30
2023-10-23T06:31:48.939Z,104.05
2023-10-23T06:36:41.350Z,184.23
2023-10-23T06:41:28.506Z,241.38
2023-10-23T06:46:15.692Z,286.30
2023-10-23T06:51:03.123Z,203.93
2023-10-23T06:55:54.339Z,326.92
2023-10-23T07:00:41.545Z,267.13
2023-10-23T07:05:28.700Z,357.13
2023-10-23T07:10:16.016Z,310.95
2023-10-23T07:15:06.862Z,189.05
2023-10-23T07:19:53.963Z,193.05
2023-10-23T07:24:41.260Z,222.35
2023-10-23T07:29:28.579Z,251.38
2023-10-23T07:34:18.470Z,144.05
2023-10-23T07:39:06.413Z,155.68
2023-10-23T07:43:53.504Z,165.50
2023-10-23T07:48:40.683Z,137.93
2023-10-23T07:53:30.733Z,151.50
2023-10-23T07:58:17.910Z,94.97
2023-10-23T08:03:05.143Z,199.32
2023-10-23T08:07:52.411Z,90.50
2023-10-23T08:12:42.324Z,80.43
2023-10-23T08:17:39.278Z,158.07
2023-10-23T08:22:29.493Z,119.63
2023-10-23T08:27:16.588Z,190.57
2023-10-23T08:32:06.653Z,175.70
2023-10-23T08:36:53.810Z,175.68
2023-10-23T08:41:42.735Z,95.10
2023-10-23T08:46:32.590Z,99.13
2023-10-23T08:51:22.739Z,101.78
2023-10-23T08:56:10.083Z,117.15
2023-10-23T09:00:57.657Z,75.85
2023-10-23T09:05:44.898Z,85.05
2023-10-23T09:11:03.716Z,78.80
2023-10-23T09:15:51.548Z,69.22
2023-10-23T09:20:38.919Z,66.47
2023-10-23T09:25:26.513Z,58.40
2023-10-23T09:30:17.577Z,57.40
2023-10-23T09:35:05.909Z,49.17
2023-10-23T09:39:52.948Z,43.03
2023-10-23T09:44:44.125Z,37.67
2023-10-23T09:49:34.039Z,34.53
2023-10-23T09:54:21.687Z,29.00
2023-10-23T09:59:10.069Z,26.85
2023-10-23T10:04:06.916Z,24.08
2023-10-23T10:08:57.601Z,22.02
2023-10-23T10:13:45.754Z,29.98
2023-10-23T10:18:37.126Z,26.45
2023-10-23T10:23:25.665Z,21.35
2023-10-23T10:28:15.499Z,21.25
2023-10-23T10:34:22.858Z,22.05
2023-10-23T10:38:12.168Z,17.77
2023-10-23T10:42:59.435Z,24.48
2023-10-23T10:47:53.068Z,20.70
2023-10-23T10:52:41.555Z,21.58
2023-10-23T10:57:28.709Z,28.30
2023-10-23T11:02:16.319Z,23.15
2023-10-23T11:07:07.718Z,18.60
2023-10-23T11:11:58.294Z,19.33
2023-10-23T11:16:45.406Z,21.67
2023-10-23T11:21:32.542Z,17.38
2023-10-23T11:26:22.442Z,21.63
2023-10-23T11:31:09.693Z,20.35
2023-10-23T11:35:56.890Z,16.83
2023-10-23T11:40:44.590Z,13.25
2023-10-23T11:45:34.364Z,17.95
2023-10-23T11:50:25.080Z,22.23
2023-10-23T11:55:14.404Z,19.13
2023-10-23T12:00:03.233Z,17.00
2023-10-23T12:05:01.683Z,16.80
2023-10-23T12:09:49.081Z,16.35
2023-10-23T12:14:36.391Z,15.07
2023-10-23T12:19:23.524Z,21.75
2023-10-23T12:24:13.400Z,24.27
2023-10-23T12:29:00.685Z,14.48
2023-10-23T12:33:48.045Z,15.05
2023-10-23T12:38:35.553Z,17.65
2023-10-23T12:43:25.435Z,15.32
2023-10-23T12:48:12.701Z,13.75
2023-10-23T12:53:00.299Z,12.23
2023-10-23T12:57:47.540Z,13.68
2023-10-23T13:02:38.423Z,10.98
2023-10-23T13:07:25.649Z,13.32
2023-10-23T13:12:13.268Z,11.48
2023-10-23T13:17:00.658Z,18.58
2023-10-23T13:21:50.589Z,15.40
2023-10-23T13:26:37.753Z,17.92
2023-10-23T13:31:25.140Z,19.73
2023-10-23T13:36:12.702Z,13.07
2023-10-23T13:41:03.257Z,14.05
2023-10-23T13:45:51.154Z,17.90
2023-10-23T13:50:38.450Z,19.05
2023-10-23T13:55:26.032Z,18.65
2023-10-23T14:00:17.378Z,19.10
2023-10-23T14:05:05.628Z,18.80
2023-10-23T14:09:53.230Z,14.70
2023-10-23T14:14:40.926Z,15.48
2023-10-23T14:19:45.628Z,15.68
2023-10-23T14:29:21.769Z,16.55
2023-10-23T14:34:08.937Z,17.25
2023-10-23T14:38:58.661Z,18.90
2023-10-23T14:43:45.758Z,20.75
2023-10-23T14:48:32.856Z,22.92
2023-10-23T14:53:20.180Z,16.48
2023-10-23T14:58:09.940Z,13.77
2023-10-23T15:02:57.153Z,19.50
2023-10-23T15:07:44.339Z,18.30
2023-10-23T15:12:31.459Z,17.77
2023-10-23T15:17:21.365Z,14.40
2023-10-23T15:22:11.291Z,15.63
2023-10-23T15:26:58.592Z,15.88
2023-10-23T15:31:46.069Z,17.63
2023-10-23T15:36:36.158Z,26.58
2023-10-23T15:41:23.484Z,25.20
2023-10-23T15:46:13.587Z,15.80
2023-10-23T15:51:00.969Z,16.42
2023-10-23T15:55:51.195Z,19.80
2023-10-23T16:00:38.557Z,21.98
2023-10-23T16:05:26.255Z,20.75
2023-10-23T16:10:15.746Z,23.45
2023-10-23T16:15:07.077Z,24.02
2023-10-23T16:19:54.140Z,14.30
2023-10-23T16:24:41.529Z,17.13
2023-10-23T16:29:29.055Z,20.40
2023-10-23T16:34:18.904Z,21.17
2023-10-23T16:39:06.129Z,19.73
2023-10-23T16:43:53.179Z,21.20
2023-10-23T16:48:41.023Z,17.52
2023-10-23T16:53:30.885Z,19.15
2023-10-23T16:58:18.086Z,18.55
2023-10-23T17:03:05.566Z,20.55
2023-10-23T17:07:52.932Z,20.40
2023-10-23T17:12:42.595Z,14.48
2023-10-23T17:17:29.759Z,28.70
2023-10-23T17:22:17.045Z,23.58
2023-10-23T17:27:05.193Z,20.65
2023-10-23T17:31:55.164Z,17.65
2023-10-23T17:36:42.359Z,23.40
2023-10-23T17:41:29.506Z,22.60
2023-10-23T17:46:16.829Z,18.77
2023-10-23T17:51:06.666Z,20.25
2023-10-23T17:55:53.871Z,23.38
2023-10-23T18:00:41.138Z,28.52
2023-10-23T18:05:28.408Z,24.80
2023-10-23T18:10:19.150Z,25.58
2023-10-23T18:15:07.505Z,28.88
2023-10-23T18:19:54.668Z,31.77
2023-10-23T18:24:59.439Z,29.35
2023-10-23T18:29:49.417Z,30.58
2023-10-23T18:34:36.960Z,30.55
2023-10-23T18:39:24.077Z,33.90
2023-10-23T18:44:11.337Z,33.38
2023-10-23T18:49:01.146Z,31.40
2023-10-23T18:53:48.262Z,32.33
2023-10-23T18:58:35.655Z,36.67
2023-10-23T19:03:23.352Z,34.15
2023-10-23T19:08:13.261Z,38.30
2023-10-23T19:13:00.465Z,40.55
2023-10-23T19:17:47.679Z,40.72
2023-10-23T19:22:34.960Z,40.35
2023-10-23T19:27:24.816Z,35.88
2023-10-23T19:32:13.665Z,34.35
2023-10-23T19:37:01.482Z,43.65
2023-10-23T19:41:49.892Z,41.47
2023-10-23T19:46:40.389Z,40.40
2023-10-23T19:51:29.614Z,40.67
2023-10-23T19:56:17.530Z,39.22
2023-10-23T20:01:04.773Z,38.65
2023-10-23T20:05:54.638Z,38.05
2023-10-23T20:10:41.990Z,33.22
2023-10-23T20:15:29.192Z,34.10
2023-10-23T20:20:16.479Z,41.90
2023-10-23T20:25:06.717Z,41.58
2023-10-23T20:29:54.686Z,40.22
2023-10-23T20:34:41.822Z,42.67
2023-10-23T20:39:29.020Z,37.80
2023-10-23T20:44:18.814Z,38.63
2023-10-23T20:49:05.982Z,37.45
2023-10-23T20:53:53.150Z,39.58
2023-10-23T20:58:40.296Z,55.95
2023-10-23T21:03:30.066Z,39.35
2023-10-23T21:08:17.227Z,41.97
2023-10-23T21:13:04.557Z,45.22
2023-10-23T21:17:51.787Z,42.35
2023-10-23T21:22:41.842Z,41.22
2023-10-23T21:27:32.024Z,47.58
2023-10-23T21:32:19.242Z,39.58
2023-10-23T21:37:06.549Z,42.35
2023-10-23T21:41:56.325Z,35.40
2023-10-23T21:46:43.551Z,38.92
2023-10-23T21:51:31.795Z,38.45
2023-10-23T21:57:18.653Z,34.28
2023-10-23T22:01:32.396Z,33.35
2023-10-23T22:06:20.186Z,31.90
2023-10-23T22:11:08.437Z,28.85
2023-10-23T22:15:55.683Z,29.83
2023-10-23T22:20:45.486Z,29.02
2023-10-23T22:25:32.649Z,28.83
2023-10-23T22:30:19.846Z,26.40
2023-10-23T22:35:07.628Z,29.17
2023-10-23T22:39:57.501Z,26.38
2023-10-23T22:44:44.660Z,26.25
2023-10-23T22:49:32.504Z,20.02
2023-10-23T22:54:20.351Z,26.20
2023-10-23T22:59:11.055Z,22.63
2023-10-23T23:03:58.879Z,21.25
2023-10-23T23:08:51.200Z,23.77
2023-10-23T23:13:38.876Z,25.23
2023-10-23T23:18:30.621Z,29.88
2023-10-23T23:23:17.762Z,25.20
2023-10-23T23:28:05.520Z,23.38
2023-10-23T23:32:52.760Z,24.08
2023-10-23T23:37:42.624Z,26.42
2023-10-23T23:42:29.739Z,26.02
2023-10-23T23:47:16.868Z,25.63
2023-10-23T23:52:04.351Z,31.58
2023-10-23T23:56:54.203Z,29.80
